Station History

Weather Underground - logo

Station Historical Data
Daily Summary for January 18, 2018 Units:  Both    English   Metric
« Previous Day
Next Day »
Daily Weekly Monthly Yearly Custom
  High: Low: Average:
Temperature: 72.6 °F /  22.6 °C 47.3 °F /  8.5 °C 55.3 °F /  12.9 °C
Dew Point: 56.0 °F /  13.3 °C 45.9 °F /  7.7 °C 50.6 °F /  10.3 °C
Humidity: 97 % 43 % 86 %
Wind Speed: 5.0 mph /  8 km/h - 0.9 mph /  1.4 km/h
Wind Gust: 5.0 mph /  8 km/h - -
Wind:- - SW
Pressure: 30.20 in /  1022.6 hPa 30.01 in /  1016.1 hPa -
Precipitation: 0.00 in /  0 mm    
Historical Graphs
 
 
Tabular Data for January 18, 2018
Time Temperature Dew Point Pressure Wind Wind Speed Wind Gust Humidity Rainfall Rate (Hourly)
00:03 52.1 °F /  11.2 °C 50.7 °F /  10.4 °C 30.20 in /  1022.6 hPa Calm     95 % 0.00 in /  0 mm
00:08 52.1 °F /  11.2 °C 50.7 °F /  10.4 °C 30.19 in /  1022.2 hPa SSE 1.2 mph /  1.9 km/h 1.2 mph /  1.9 km/h 95 % 0.00 in /  0 mm
00:13 52.1 °F /  11.2 °C 50.7 °F /  10.4 °C 30.19 in /  1022.2 hPa Calm     95 % 0.00 in /  0 mm
00:18 52.1 °F /  11.2 °C 50.7 °F /  10.4 °C 30.19 in /  1022.2 hPa South 2.3 mph /  3.7 km/h 2.3 mph /  3.7 km/h 95 % 0.00 in /  0 mm
00:23 52.0 °F /  11.1 °C 50.6 °F /  10.3 °C 30.19 in /  1022.2 hPa ESE 1.2 mph /  1.9 km/h   95 % 0.00 in /  0 mm
00:28 52.0 °F /  11.1 °C 50.6 °F /  10.3 °C 30.19 in /  1022.2 hPa ESE 1.2 mph /  1.9 km/h   95 % 0.00 in /  0 mm
00:33 52.1 °F /  11.2 °C 50.7 °F /  10.4 °C 30.19 in /  1022.2 hPa East 1.2 mph /  1.9 km/h 1.2 mph /  1.9 km/h 95 % 0.00 in /  0 mm
00:38 52.0 °F /  11.1 °C 50.6 °F /  10.3 °C 30.19 in /  1022.2 hPa Calm     95 % 0.00 in /  0 mm
00:43 52.1 °F /  11.2 °C 50.7 °F /  10.4 °C 30.19 in /  1022.2 hPa SE 1.2 mph /  1.9 km/h 1.2 mph /  1.9 km/h 95 % 0.00 in /  0 mm
00:48 52.1 °F /  11.2 °C 50.7 °F /  10.4 °C 30.19 in /  1022.2 hPa SSE 2.3 mph /  3.7 km/h 2.3 mph /  3.7 km/h 95 % 0.00 in /  0 mm
00:53 52.0 °F /  11.1 °C 50.6 °F /  10.3 °C 30.19 in /  1022.2 hPa SE 1.2 mph /  1.9 km/h 1.2 mph /  1.9 km/h 95 % 0.00 in /  0 mm
00:59 52.0 °F /  11.1 °C 50.6 °F /  10.3 °C 30.19 in /  1022.2 hPa SSE 2.3 mph /  3.7 km/h 2.3 mph /  3.7 km/h 95 % 0.00 in /  0 mm
01:04 51.9 °F /  11.1 °C 50.5 °F /  10.3 °C 30.19 in /  1022.2 hPa Calm     95 % 0.00 in /  0 mm
01:09 51.9 °F /  11.1 °C 50.5 °F /  10.3 °C 30.19 in /  1022.2 hPa ESE 1.2 mph /  1.9 km/h 1.2 mph /  1.9 km/h 95 % 0.00 in /  0 mm
01:14 51.9 °F /  11.1 °C 50.5 °F /  10.3 °C 30.19 in /  1022.2 hPa East 1.0 mph /  1.6 km/h 1.0 mph /  1.6 km/h 95 % 0.00 in /  0 mm
01:19 51.8 °F /  11 °C 50.4 °F /  10.2 °C 30.18 in /  1021.9 hPa SE 1.2 mph /  1.9 km/h 1.2 mph /  1.9 km/h 95 % 0.00 in /  0 mm
01:24 51.8 °F /  11 °C 50.4 °F /  10.2 °C 30.18 in /  1021.9 hPa SSE 2.3 mph /  3.7 km/h 2.3 mph /  3.7 km/h 95 % 0.00 in /  0 mm
01:29 51.8 °F /  11 °C 50.4 °F /  10.2 °C 30.19 in /  1022.2 hPa Calm     95 % 0.00 in /  0 mm
01:34 51.8 °F /  11 °C 50.4 °F /  10.2 °C 30.19 in /  1022.2 hPa SSE 2.3 mph /  3.7 km/h 2.3 mph /  3.7 km/h 95 % 0.00 in /  0 mm
01:39 51.8 °F /  11 °C 50.4 °F /  10.2 °C 30.19 in /  1022.2 hPa SSE 1.2 mph /  1.9 km/h 1.2 mph /  1.9 km/h 95 % 0.00 in /  0 mm
01:44 51.8 °F /  11 °C 50.4 °F /  10.2 °C 30.19 in /  1022.2 hPa SE 1.0 mph /  1.6 km/h 1.0 mph /  1.6 km/h 95 % 0.00 in /  0 mm
01:49 51.8 °F /  11 °C 50.4 °F /  10.2 °C 30.19 in /  1022.2 hPa SSE 1.2 mph /  1.9 km/h 1.2 mph /  1.9 km/h 95 % 0.00 in /  0 mm
01:54 51.7 °F /  10.9 °C 50.3 °F /  10.2 °C 30.19 in /  1022.2 hPa SE 1.2 mph /  1.9 km/h   95 % 0.00 in /  0 mm
01:59 51.7 °F /  10.9 °C 50.3 °F /  10.2 °C 30.19 in /  1022.2 hPa South 1.2 mph /  1.9 km/h 1.2 mph /  1.9 km/h 95 % 0.00 in /  0 mm
02:04 51.6 °F /  10.9 °C 50.2 °F /  10.1 °C 30.19 in /  1022.2 hPa South 2.3 mph /  3.7 km/h 2.3 mph /  3.7 km/h 95 % 0.00 in /  0 mm
02:09 51.6 °F /  10.9 °C 50.2 °F /  10.1 °C 30.19 in /  1022.2 hPa South 1.2 mph /  1.9 km/h 1.2 mph /  1.9 km/h 95 % 0.00 in /  0 mm
02:14 51.6 °F /  10.9 °C 50.2 °F /  10.1 °C 30.19 in /  1022.2 hPa SE 2.3 mph /  3.7 km/h 2.3 mph /  3.7 km/h 95 % 0.00 in /  0 mm
02:19 51.6 °F /  10.9 °C 50.2 °F /  10.1 °C 30.19 in /  1022.2 hPa SSE 2.3 mph /  3.7 km/h 2.3 mph /  3.7 km/h 95 % 0.00 in /  0 mm
02:24 51.6 °F /  10.9 °C 50.2 °F /  10.1 °C 30.19 in /  1022.2 hPa SSE 2.0 mph /  3.2 km/h 2.0 mph /  3.2 km/h 95 % 0.00 in /  0 mm
02:29 51.6 °F /  10.9 °C 50.2 °F /  10.1 °C 30.19 in /  1022.2 hPa Calm     95 % 0.00 in /  0 mm
02:34 51.6 °F /  10.9 °C 50.5 °F /  10.3 °C 30.18 in /  1021.9 hPa SSW 1.2 mph /  1.9 km/h   96 % 0.00 in /  0 mm
02:39 51.6 °F /  10.9 °C 50.5 °F /  10.3 °C 30.18 in /  1021.9 hPa South 1.2 mph /  1.9 km/h 1.2 mph /  1.9 km/h 96 % 0.00 in /  0 mm
02:44 51.5 °F /  10.8 °C 50.4 °F /  10.2 °C 30.18 in /  1021.9 hPa SSE 1.2 mph /  1.9 km/h 1.2 mph /  1.9 km/h 96 % 0.00 in /  0 mm
02:49 51.5 °F /  10.8 °C 50.4 °F /  10.2 °C 30.18 in /  1021.9 hPa SE 1.2 mph /  1.9 km/h   96 % 0.00 in /  0 mm
02:54 51.5 °F /  10.8 °C 50.4 °F /  10.2 °C 30.18 in /  1021.9 hPa Calm     96 % 0.00 in /  0 mm
02:59 51.5 °F /  10.8 °C 50.4 °F /  10.2 °C 30.18 in /  1021.9 hPa SE 1.2 mph /  1.9 km/h   96 % 0.00 in /  0 mm
03:04 51.4 °F /  10.8 °C 50.3 °F /  10.2 °C 30.18 in /  1021.9 hPa South 1.2 mph /  1.9 km/h   96 % 0.00 in /  0 mm
03:09 51.3 °F /  10.7 °C 50.2 °F /  10.1 °C 30.17 in /  1021.6 hPa South 1.0 mph /  1.6 km/h 1.0 mph /  1.6 km/h 96 % 0.00 in /  0 mm
03:14 51.2 °F /  10.7 °C 50.1 °F /  10.1 °C 30.17 in /  1021.6 hPa SE 1.2 mph /  1.9 km/h 1.2 mph /  1.9 km/h 96 % 0.00 in /  0 mm
03:19 51.2 °F /  10.7 °C 50.1 °F /  10.1 °C 30.17 in /  1021.6 hPa ESE 1.2 mph /  1.9 km/h 1.2 mph /  1.9 km/h 96 % 0.00 in /  0 mm
03:24 51.2 °F /  10.7 °C 50.1 °F /  10.1 °C 30.17 in /  1021.6 hPa Calm     96 % 0.00 in /  0 mm
03:29 51.2 °F /  10.7 °C 50.1 °F /  10.1 °C 30.17 in /  1021.6 hPa Calm     96 % 0.00 in /  0 mm
03:35 51.2 °F /  10.7 °C 50.1 °F /  10.1 °C 30.17 in /  1021.6 hPa Calm     96 % 0.00 in /  0 mm
03:40 51.2 °F /  10.7 °C 50.1 °F /  10.1 °C 30.17 in /  1021.6 hPa Calm     96 % 0.00 in /  0 mm
03:45 51.2 °F /  10.7 °C 50.1 °F /  10.1 °C 30.17 in /  1021.6 hPa Calm     96 % 0.00 in /  0 mm
03:50 51.1 °F /  10.6 °C 50.0 °F /  10 °C 30.17 in /  1021.6 hPa WNW 1.2 mph /  1.9 km/h   96 % 0.00 in /  0 mm
03:55 51.1 °F /  10.6 °C 50.0 °F /  10 °C 30.17 in /  1021.6 hPa WNW 1.2 mph /  1.9 km/h 1.2 mph /  1.9 km/h 96 % 0.00 in /  0 mm
04:00 51.0 °F /  10.6 °C 49.9 °F /  9.9 °C 30.17 in /  1021.6 hPa Calm     96 % 0.00 in /  0 mm
04:05 51.0 °F /  10.6 °C 49.9 °F /  9.9 °C 30.17 in /  1021.6 hPa Calm     96 % 0.00 in /  0 mm
04:10 51.0 °F /  10.6 °C 49.9 °F /  9.9 °C 30.17 in /  1021.6 hPa Calm     96 % 0.00 in /  0 mm
04:15 51.0 °F /  10.6 °C 49.9 °F /  9.9 °C 30.17 in /  1021.6 hPa Calm     96 % 0.00 in /  0 mm
04:20 51.0 °F /  10.6 °C 49.9 °F /  9.9 °C 30.17 in /  1021.6 hPa NNW 1.2 mph /  1.9 km/h 1.2 mph /  1.9 km/h 96 % 0.00 in /  0 mm
04:25 51.0 °F /  10.6 °C 49.9 °F /  9.9 °C 30.17 in /  1021.6 hPa NW 1.2 mph /  1.9 km/h   96 % 0.00 in /  0 mm
04:30 51.0 °F /  10.6 °C 49.9 °F /  9.9 °C 30.17 in /  1021.6 hPa NW 1.2 mph /  1.9 km/h   96 % 0.00 in /  0 mm
04:35 50.9 °F /  10.5 °C 49.8 °F /  9.9 °C 30.17 in /  1021.6 hPa NW 1.2 mph /  1.9 km/h 1.2 mph /  1.9 km/h 96 % 0.00 in /  0 mm
04:40 50.9 °F /  10.5 °C 49.8 °F /  9.9 °C 30.17 in /  1021.6 hPa NW 1.2 mph /  1.9 km/h 1.2 mph /  1.9 km/h 96 % 0.00 in /  0 mm
04:45 50.9 °F /  10.5 °C 49.8 °F /  9.9 °C 30.17 in /  1021.6 hPa NW 1.2 mph /  1.9 km/h   96 % 0.00 in /  0 mm
04:50 50.9 °F /  10.5 °C 49.8 °F /  9.9 °C 30.17 in /  1021.6 hPa NNW 1.2 mph /  1.9 km/h 1.2 mph /  1.9 km/h 96 % 0.00 in /  0 mm
04:55 50.8 °F /  10.4 °C 49.7 °F /  9.8 °C 30.17 in /  1021.6 hPa NW 1.0 mph /  1.6 km/h 1.0 mph /  1.6 km/h 96 % 0.00 in /  0 mm
05:00 50.8 °F /  10.4 °C 49.7 °F /  9.8 °C 30.17 in /  1021.6 hPa WNW 1.0 mph /  1.6 km/h 1.0 mph /  1.6 km/h 96 % 0.00 in /  0 mm
05:05 50.8 °F /  10.4 °C 50.0 °F /  10 °C 30.17 in /  1021.6 hPa WNW 1.2 mph /  1.9 km/h 1.2 mph /  1.9 km/h 97 % 0.00 in /  0 mm
05:10 50.8 °F /  10.4 °C 49.7 °F /  9.8 °C 30.17 in /  1021.6 hPa NW 1.2 mph /  1.9 km/h 1.2 mph /  1.9 km/h 96 % 0.00 in /  0 mm
05:15 50.7 °F /  10.4 °C 49.9 °F /  9.9 °C 30.16 in /  1021.2 hPa Calm     97 % 0.00 in /  0 mm
05:20 50.6 °F /  10.3 °C 49.8 °F /  9.9 °C 30.16 in /  1021.2 hPa West 1.2 mph /  1.9 km/h 1.2 mph /  1.9 km/h 97 % 0.00 in /  0 mm
05:25 50.6 °F /  10.3 °C 49.8 °F /  9.9 °C 30.16 in /  1021.2 hPa Calm     97 % 0.00 in /  0 mm
05:30 50.6 °F /  10.3 °C 49.8 °F /  9.9 °C 30.16 in /  1021.2 hPa Calm     97 % 0.00 in /  0 mm
05:35 50.6 °F /  10.3 °C 49.8 °F /  9.9 °C 30.16 in /  1021.2 hPa Calm     97 % 0.00 in /  0 mm
05:40 50.5 °F /  10.3 °C 49.7 °F /  9.8 °C 30.16 in /  1021.2 hPa Calm     97 % 0.00 in /  0 mm
05:45 50.5 °F /  10.3 °C 49.7 °F /  9.8 °C 30.16 in /  1021.2 hPa Calm     97 % 0.00 in /  0 mm
05:50 50.6 °F /  10.3 °C 49.8 °F /  9.9 °C 30.15 in /  1020.9 hPa Calm     97 % 0.00 in /  0 mm
05:55 50.6 °F /  10.3 °C 49.8 °F /  9.9 °C 30.15 in /  1020.9 hPa Calm     97 % 0.00 in /  0 mm
06:00 50.6 °F /  10.3 °C 49.8 °F /  9.9 °C 30.15 in /  1020.9 hPa Calm     97 % 0.00 in /  0 mm
06:05 50.6 °F /  10.3 °C 49.8 °F /  9.9 °C 30.15 in /  1020.9 hPa Calm     97 % 0.00 in /  0 mm
06:10 50.6 °F /  10.3 °C 49.8 °F /  9.9 °C 30.15 in /  1020.9 hPa Calm     97 % 0.00 in /  0 mm
06:15 50.6 °F /  10.3 °C 49.8 °F /  9.9 °C 30.14 in /  1020.5 hPa Calm     97 % 0.00 in /  0 mm
06:20 50.6 °F /  10.3 °C 49.8 °F /  9.9 °C 30.14 in /  1020.5 hPa Calm     97 % 0.00 in /  0 mm
06:25 50.6 °F /  10.3 °C 49.8 °F /  9.9 °C 30.14 in /  1020.5 hPa ENE 1.0 mph /  1.6 km/h   97 % 0.00 in /  0 mm
06:30 50.5 °F /  10.3 °C 49.7 °F /  9.8 °C 30.14 in /  1020.5 hPa ESE 1.2 mph /  1.9 km/h   97 % 0.00 in /  0 mm
06:35 50.5 °F /  10.3 °C 49.7 °F /  9.8 °C 30.14 in /  1020.5 hPa ESE 1.2 mph /  1.9 km/h   97 % 0.00 in /  0 mm
06:40 50.5 °F /  10.3 °C 49.7 °F /  9.8 °C 30.14 in /  1020.5 hPa Calm     97 % 0.00 in /  0 mm
06:45 50.5 °F /  10.3 °C 49.7 °F /  9.8 °C 30.14 in /  1020.5 hPa Calm   0.4 mph /  0.6 km/h 97 % 0.00 in /  0 mm
06:50 50.5 °F /  10.3 °C 49.7 °F /  9.8 °C 30.14 in /  1020.5 hPa Calm     97 % 0.00 in /  0 mm
06:55 50.5 °F /  10.3 °C 49.7 °F /  9.8 °C 30.14 in /  1020.5 hPa Calm     97 % 0.00 in /  0 mm
07:00 50.5 °F /  10.3 °C 49.7 °F /  9.8 °C 30.14 in /  1020.5 hPa Calm     97 % 0.00 in /  0 mm
07:05 50.5 °F /  10.3 °C 49.7 °F /  9.8 °C 30.14 in /  1020.5 hPa Calm     97 % 0.00 in /  0 mm
07:10 50.5 °F /  10.3 °C 49.7 °F /  9.8 °C 30.15 in /  1020.9 hPa Calm     97 % 0.00 in /  0 mm
07:15 50.5 °F /  10.3 °C 49.7 °F /  9.8 °C 30.15 in /  1020.9 hPa Calm     97 % 0.00 in /  0 mm
07:20 50.5 °F /  10.3 °C 49.7 °F /  9.8 °C 30.15 in /  1020.9 hPa Calm     97 % 0.00 in /  0 mm
07:25 50.4 °F /  10.2 °C 49.6 °F /  9.8 °C 30.15 in /  1020.9 hPa Calm     97 % 0.00 in /  0 mm
07:30 50.4 °F /  10.2 °C 49.6 °F /  9.8 °C 30.15 in /  1020.9 hPa Calm     97 % 0.00 in /  0 mm
07:35 50.4 °F /  10.2 °C 49.6 °F /  9.8 °C 30.15 in /  1020.9 hPa Calm     97 % 0.00 in /  0 mm
07:40 50.4 °F /  10.2 °C 49.6 °F /  9.8 °C 30.15 in /  1020.9 hPa Calm     97 % 0.00 in /  0 mm
07:45 50.4 °F /  10.2 °C 49.6 °F /  9.8 °C 30.15 in /  1020.9 hPa Calm     97 % 0.00 in /  0 mm
07:50 50.4 °F /  10.2 °C 49.6 °F /  9.8 °C 30.15 in /  1020.9 hPa WNW 1.2 mph /  1.9 km/h 1.2 mph /  1.9 km/h 97 % 0.00 in /  0 mm
07:55 50.3 °F /  10.2 °C 49.5 °F /  9.7 °C 30.15 in /  1020.9 hPa NW 1.2 mph /  1.9 km/h 1.2 mph /  1.9 km/h 97 % 0.00 in /  0 mm
08:01 50.4 °F /  10.2 °C 49.6 °F /  9.8 °C 30.15 in /  1020.9 hPa Calm     97 % 0.00 in /  0 mm
08:06 50.4 °F /  10.2 °C 49.6 °F /  9.8 °C 30.16 in /  1021.2 hPa WNW 1.2 mph /  1.9 km/h 1.2 mph /  1.9 km/h 97 % 0.00 in /  0 mm
08:11 50.4 °F /  10.2 °C 49.6 °F /  9.8 °C 30.16 in /  1021.2 hPa NW 1.2 mph /  1.9 km/h 1.2 mph /  1.9 km/h 97 % 0.00 in /  0 mm
08:16 50.4 °F /  10.2 °C 49.6 °F /  9.8 °C 30.16 in /  1021.2 hPa Calm     97 % 0.00 in /  0 mm
08:21 50.4 °F /  10.2 °C 49.6 °F /  9.8 °C 30.16 in /  1021.2 hPa Calm     97 % 0.00 in /  0 mm
08:26 50.4 °F /  10.2 °C 49.6 °F /  9.8 °C 30.15 in /  1020.9 hPa WNW 1.2 mph /  1.9 km/h 1.2 mph /  1.9 km/h 97 % 0.00 in /  0 mm
08:31 50.5 °F /  10.3 °C 49.7 °F /  9.8 °C 30.15 in /  1020.9 hPa Calm     97 % 0.00 in /  0 mm
08:36 50.5 °F /  10.3 °C 49.7 °F /  9.8 °C 30.15 in /  1020.9 hPa Calm     97 % 0.00 in /  0 mm
08:41 50.6 °F /  10.3 °C 49.8 °F /  9.9 °C 30.15 in /  1020.9 hPa NW 1.2 mph /  1.9 km/h   97 % 0.00 in /  0 mm
08:46 50.7 °F /  10.4 °C 49.9 °F /  9.9 °C 30.15 in /  1020.9 hPa Calm     97 % 0.00 in /  0 mm
08:51 50.7 °F /  10.4 °C 49.9 °F /  9.9 °C 30.15 in /  1020.9 hPa Calm     97 % 0.00 in /  0 mm
08:56 50.8 °F /  10.4 °C 49.7 °F /  9.8 °C 30.16 in /  1021.2 hPa Calm     96 % 0.00 in /  0 mm
09:01 50.8 °F /  10.4 °C 49.7 °F /  9.8 °C 30.16 in /  1021.2 hPa WNW 1.2 mph /  1.9 km/h 1.2 mph /  1.9 km/h 96 % 0.00 in /  0 mm
09:06 50.9 °F /  10.5 °C 49.8 °F /  9.9 °C 30.16 in /  1021.2 hPa NW 1.2 mph /  1.9 km/h 1.2 mph /  1.9 km/h 96 % 0.00 in /  0 mm
09:11 51.0 °F /  10.6 °C 49.9 °F /  9.9 °C 30.17 in /  1021.6 hPa WNW 2.3 mph /  3.7 km/h 2.3 mph /  3.7 km/h 96 % 0.00 in /  0 mm
09:16 51.1 °F /  10.6 °C 50.0 °F /  10 °C 30.17 in /  1021.6 hPa WNW 2.3 mph /  3.7 km/h 2.3 mph /  3.7 km/h 96 % 0.00 in /  0 mm
09:21 51.1 °F /  10.6 °C 49.7 °F /  9.8 °C 30.16 in /  1021.2 hPa NW 2.3 mph /  3.7 km/h 2.3 mph /  3.7 km/h 95 % 0.00 in /  0 mm
09:26 51.2 °F /  10.7 °C 49.8 °F /  9.9 °C 30.16 in /  1021.2 hPa WNW 1.2 mph /  1.9 km/h 1.2 mph /  1.9 km/h 95 % 0.00 in /  0 mm
09:31 51.3 °F /  10.7 °C 49.9 °F /  9.9 °C 30.16 in /  1021.2 hPa WNW 2.3 mph /  3.7 km/h 2.3 mph /  3.7 km/h 95 % 0.00 in /  0 mm
09:36 51.5 °F /  10.8 °C 50.1 °F /  10.1 °C 30.16 in /  1021.2 hPa North 2.3 mph /  3.7 km/h 2.3 mph /  3.7 km/h 95 % 0.00 in /  0 mm
09:41 51.6 °F /  10.9 °C 49.9 °F /  9.9 °C 30.16 in /  1021.2 hPa WNW 1.2 mph /  1.9 km/h   94 % 0.00 in /  0 mm
09:46 52.1 °F /  11.2 °C 50.7 °F /  10.4 °C 30.16 in /  1021.2 hPa ESE 2.3 mph /  3.7 km/h 2.3 mph /  3.7 km/h 95 % 0.00 in /  0 mm
09:51 52.6 °F /  11.4 °C 50.9 °F /  10.5 °C 30.15 in /  1020.9 hPa ESE 3.0 mph /  4.8 km/h 3.0 mph /  4.8 km/h 94 % 0.00 in /  0 mm
09:56 53.0 °F /  11.7 °C 51.0 °F /  10.6 °C 30.15 in /  1020.9 hPa WNW 1.2 mph /  1.9 km/h 1.2 mph /  1.9 km/h 93 % 0.00 in /  0 mm
10:01 53.5 °F /  11.9 °C 50.9 °F /  10.5 °C 30.15 in /  1020.9 hPa SSE 3.5 mph /  5.6 km/h 3.5 mph /  5.6 km/h 91 % 0.00 in /  0 mm
10:06 53.9 °F /  12.2 °C 51.0 °F /  10.6 °C 30.15 in /  1020.9 hPa West 2.3 mph /  3.7 km/h 2.3 mph /  3.7 km/h 90 % 0.00 in /  0 mm
10:11 54.3 °F /  12.4 °C 51.1 °F /  10.6 °C 30.15 in /  1020.9 hPa WNW 2.3 mph /  3.7 km/h 2.3 mph /  3.7 km/h 89 % 0.00 in /  0 mm
10:16 54.7 °F /  12.6 °C 51.5 °F /  10.8 °C 30.15 in /  1020.9 hPa North 5.0 mph /  8 km/h 5.0 mph /  8 km/h 89 % 0.00 in /  0 mm
10:21 55.4 °F /  13 °C 51.9 °F /  11.1 °C 30.15 in /  1020.9 hPa NW 3.0 mph /  4.8 km/h 3.0 mph /  4.8 km/h 88 % 0.00 in /  0 mm
10:26 55.6 °F /  13.1 °C 51.5 °F /  10.8 °C 30.15 in /  1020.9 hPa NW 3.5 mph /  5.6 km/h 3.5 mph /  5.6 km/h 86 % 0.00 in /  0 mm
10:31 55.7 °F /  13.2 °C 51.6 °F /  10.9 °C 30.14 in /  1020.5 hPa NW 4.6 mph /  7.4 km/h 4.6 mph /  7.4 km/h 86 % 0.00 in /  0 mm
10:36 56.1 °F /  13.4 °C 51.7 °F /  10.9 °C 30.14 in /  1020.5 hPa ENE 2.3 mph /  3.7 km/h 2.3 mph /  3.7 km/h 85 % 0.00 in /  0 mm
10:41 56.6 °F /  13.7 °C 51.8 °F /  11 °C 30.14 in /  1020.5 hPa NE 3.5 mph /  5.6 km/h 3.5 mph /  5.6 km/h 84 % 0.00 in /  0 mm
10:46 57.2 °F /  14 °C 52.1 °F /  11.2 °C 30.13 in /  1020.2 hPa NE 1.2 mph /  1.9 km/h 1.2 mph /  1.9 km/h 83 % 0.00 in /  0 mm
10:51 58.2 °F /  14.6 °C 52.4 °F /  11.3 °C 30.13 in /  1020.2 hPa WNW 1.2 mph /  1.9 km/h 1.2 mph /  1.9 km/h 81 % 0.00 in /  0 mm
10:56 59.2 °F /  15.1 °C 52.7 °F /  11.5 °C 30.13 in /  1020.2 hPa West 1.2 mph /  1.9 km/h 1.2 mph /  1.9 km/h 79 % 0.00 in /  0 mm
11:01 60.4 °F /  15.8 °C 53.2 °F /  11.8 °C 30.12 in /  1019.9 hPa WNW 1.2 mph /  1.9 km/h 1.2 mph /  1.9 km/h 77 % 0.00 in /  0 mm
11:06 61.4 °F /  16.3 °C 51.9 °F /  11.1 °C 30.12 in /  1019.9 hPa WNW 3.5 mph /  5.6 km/h 3.5 mph /  5.6 km/h 71 % 0.00 in /  0 mm
11:11 62.3 °F /  16.8 °C 52.0 °F /  11.1 °C 30.12 in /  1019.9 hPa WNW 1.2 mph /  1.9 km/h 1.2 mph /  1.9 km/h 69 % 0.00 in /  0 mm
11:16 62.9 °F /  17.2 °C 51.0 °F /  10.6 °C 30.12 in /  1019.9 hPa NW 3.5 mph /  5.6 km/h 3.5 mph /  5.6 km/h 65 % 0.00 in /  0 mm
11:21 63.4 °F /  17.4 °C 51.4 °F /  10.8 °C 30.12 in /  1019.9 hPa NW 2.3 mph /  3.7 km/h 2.3 mph /  3.7 km/h 65 % 0.00 in /  0 mm
11:26 63.8 °F /  17.7 °C 50.1 °F /  10.1 °C 30.12 in /  1019.9 hPa NW 3.5 mph /  5.6 km/h 3.5 mph /  5.6 km/h 61 % 0.00 in /  0 mm
11:31 64.5 °F /  18.1 °C 50.7 °F /  10.4 °C 30.11 in /  1019.5 hPa WNW 1.2 mph /  1.9 km/h   61 % 0.00 in /  0 mm
11:36 65.3 °F /  18.5 °C 50.1 °F /  10.1 °C 30.10 in /  1019.2 hPa WNW 1.2 mph /  1.9 km/h 1.2 mph /  1.9 km/h 58 % 0.00 in /  0 mm
11:41 66.3 °F /  19.1 °C 48.7 °F /  9.3 °C 30.09 in /  1018.8 hPa NNW 1.2 mph /  1.9 km/h 1.2 mph /  1.9 km/h 53 % 0.00 in /  0 mm
11:46 67.1 °F /  19.5 °C 49.4 °F /  9.7 °C 30.09 in /  1018.8 hPa NE 2.3 mph /  3.7 km/h 2.3 mph /  3.7 km/h 53 % 0.00 in /  0 mm
11:51 67.9 °F /  19.9 °C 48.6 °F /  9.2 °C 30.09 in /  1018.8 hPa East 3.5 mph /  5.6 km/h 3.5 mph /  5.6 km/h 50 % 0.00 in /  0 mm
11:56 68.5 °F /  20.3 °C 47.5 °F /  8.6 °C 30.08 in /  1018.5 hPa WNW 1.2 mph /  1.9 km/h 1.2 mph /  1.9 km/h 47 % 0.00 in /  0 mm
12:01 69.0 °F /  20.6 °C 48.5 °F /  9.2 °C 30.08 in /  1018.5 hPa SSE 1.2 mph /  1.9 km/h 1.2 mph /  1.9 km/h 48 % 0.00 in /  0 mm
12:06 69.6 °F /  20.9 °C 48.5 °F /  9.2 °C 30.07 in /  1018.2 hPa NE 1.2 mph /  1.9 km/h 1.2 mph /  1.9 km/h 47 % 0.00 in /  0 mm
12:11 70.1 °F /  21.2 °C 48.9 °F /  9.4 °C 30.07 in /  1018.2 hPa ENE 1.2 mph /  1.9 km/h 1.2 mph /  1.9 km/h 47 % 0.00 in /  0 mm
12:16 70.2 °F /  21.2 °C 49.0 °F /  9.4 °C 30.07 in /  1018.2 hPa SSE 1.2 mph /  1.9 km/h 1.2 mph /  1.9 km/h 47 % 0.00 in /  0 mm
12:22 70.4 °F /  21.3 °C 49.2 °F /  9.6 °C 30.07 in /  1018.2 hPa SSE 1.2 mph /  1.9 km/h 1.2 mph /  1.9 km/h 47 % 0.00 in /  0 mm
12:27 70.8 °F /  21.6 °C 49.6 °F /  9.8 °C 30.06 in /  1017.8 hPa SE 1.2 mph /  1.9 km/h 1.2 mph /  1.9 km/h 47 % 0.00 in /  0 mm
12:32 71.2 °F /  21.8 °C 49.4 °F /  9.7 °C 30.06 in /  1017.8 hPa SE 1.2 mph /  1.9 km/h 1.2 mph /  1.9 km/h 46 % 0.00 in /  0 mm
12:37 71.4 °F /  21.9 °C 48.3 °F /  9.1 °C 30.05 in /  1017.5 hPa East 2.0 mph /  3.2 km/h 2.0 mph /  3.2 km/h 44 % 0.00 in /  0 mm
12:42 71.3 °F /  21.8 °C 48.3 °F /  9.1 °C 30.05 in /  1017.5 hPa SSE 2.0 mph /  3.2 km/h 2.0 mph /  3.2 km/h 44 % 0.00 in /  0 mm
12:47 71.6 °F /  22 °C 47.9 °F /  8.8 °C 30.05 in /  1017.5 hPa ESE 1.2 mph /  1.9 km/h 1.2 mph /  1.9 km/h 43 % 0.00 in /  0 mm
12:52 71.9 °F /  22.2 °C 48.2 °F /  9 °C 30.05 in /  1017.5 hPa Calm     43 % 0.00 in /  0 mm
12:57 72.4 °F /  22.4 °C 49.3 °F /  9.6 °C 30.05 in /  1017.5 hPa SE 1.2 mph /  1.9 km/h 1.2 mph /  1.9 km/h 44 % 0.00 in /  0 mm
13:02 72.6 °F /  22.6 °C 50.0 °F /  10 °C 30.05 in /  1017.5 hPa Calm     45 % 0.00 in /  0 mm
13:07 72.4 °F /  22.4 °C 49.9 °F /  9.9 °C 30.05 in /  1017.5 hPa NW 3.5 mph /  5.6 km/h 3.5 mph /  5.6 km/h 45 % 0.00 in /  0 mm
13:12 71.8 °F /  22.1 °C 50.5 °F /  10.3 °C 30.05 in /  1017.5 hPa NW 3.5 mph /  5.6 km/h 3.5 mph /  5.6 km/h 47 % 0.00 in /  0 mm
13:17 71.6 °F /  22 °C 51.4 °F /  10.8 °C 30.05 in /  1017.5 hPa SSW 2.0 mph /  3.2 km/h 2.0 mph /  3.2 km/h 49 % 0.00 in /  0 mm
13:22 71.3 °F /  21.8 °C 51.1 °F /  10.6 °C 30.05 in /  1017.5 hPa NNW 3.5 mph /  5.6 km/h 3.5 mph /  5.6 km/h 49 % 0.00 in /  0 mm
13:27 71.2 °F /  21.8 °C 51.1 °F /  10.6 °C 30.05 in /  1017.5 hPa NW 2.3 mph /  3.7 km/h 2.3 mph /  3.7 km/h 49 % 0.00 in /  0 mm
13:32 70.9 °F /  21.6 °C 52.4 °F /  11.3 °C 30.04 in /  1017.2 hPa North 2.3 mph /  3.7 km/h 2.3 mph /  3.7 km/h 52 % 0.00 in /  0 mm
13:37 70.7 °F /  21.5 °C 53.7 °F /  12.1 °C 30.04 in /  1017.2 hPa NW 2.3 mph /  3.7 km/h 2.3 mph /  3.7 km/h 55 % 0.00 in /  0 mm
13:42 70.5 °F /  21.4 °C 53.1 °F /  11.7 °C 30.03 in /  1016.8 hPa NNW 1.2 mph /  1.9 km/h 1.2 mph /  1.9 km/h 54 % 0.00 in /  0 mm
13:47 70.5 °F /  21.4 °C 53.1 °F /  11.7 °C 30.03 in /  1016.8 hPa SE 2.3 mph /  3.7 km/h 2.3 mph /  3.7 km/h 54 % 0.00 in /  0 mm
13:52 70.2 °F /  21.2 °C 53.8 °F /  12.1 °C 30.03 in /  1016.8 hPa NW 3.5 mph /  5.6 km/h 3.5 mph /  5.6 km/h 56 % 0.00 in /  0 mm
13:57 70.1 °F /  21.2 °C 55.6 °F /  13.1 °C 30.03 in /  1016.8 hPa South 3.5 mph /  5.6 km/h 3.5 mph /  5.6 km/h 60 % 0.00 in /  0 mm
14:02 69.7 °F /  20.9 °C 55.2 °F /  12.9 °C 30.03 in /  1016.8 hPa NNW 3.5 mph /  5.6 km/h 3.5 mph /  5.6 km/h 60 % 0.00 in /  0 mm
14:07 69.5 °F /  20.8 °C 55.9 °F /  13.3 °C 30.03 in /  1016.8 hPa WSW 2.3 mph /  3.7 km/h 2.3 mph /  3.7 km/h 62 % 0.00 in /  0 mm
14:12 69.1 °F /  20.6 °C 55.5 °F /  13.1 °C 30.03 in /  1016.8 hPa SSW 2.3 mph /  3.7 km/h 2.3 mph /  3.7 km/h 62 % 0.00 in /  0 mm
14:17 68.7 °F /  20.4 °C 55.6 °F /  13.1 °C 30.03 in /  1016.8 hPa NW 1.2 mph /  1.9 km/h   63 % 0.00 in /  0 mm
14:22 68.4 °F /  20.2 °C 55.7 °F /  13.2 °C 30.02 in /  1016.5 hPa Calm     64 % 0.00 in /  0 mm
14:27 67.8 °F /  19.9 °C 56.0 °F /  13.3 °C 30.02 in /  1016.5 hPa West 1.2 mph /  1.9 km/h 1.2 mph /  1.9 km/h 66 % 0.00 in /  0 mm
14:32 67.1 °F /  19.5 °C 55.8 °F /  13.2 °C 30.02 in /  1016.5 hPa NW 1.2 mph /  1.9 km/h 1.2 mph /  1.9 km/h 67 % 0.00 in /  0 mm
14:37 66.5 °F /  19.2 °C 55.6 °F /  13.1 °C 30.02 in /  1016.5 hPa NNW 1.2 mph /  1.9 km/h   68 % 0.00 in /  0 mm
14:42 66.1 °F /  18.9 °C 55.6 °F /  13.1 °C 30.03 in /  1016.8 hPa SSE 2.3 mph /  3.7 km/h 2.3 mph /  3.7 km/h 69 % 0.00 in /  0 mm
14:47 65.8 °F /  18.8 °C 55.7 °F /  13.2 °C 30.02 in /  1016.5 hPa NW 1.2 mph /  1.9 km/h 1.2 mph /  1.9 km/h 70 % 0.00 in /  0 mm
14:52 65.4 °F /  18.6 °C 55.4 °F /  13 °C 30.02 in /  1016.5 hPa NW 2.3 mph /  3.7 km/h 2.3 mph /  3.7 km/h 70 % 0.00 in /  0 mm
14:57 65.0 °F /  18.3 °C 55.4 °F /  13 °C 30.02 in /  1016.5 hPa Calm     71 % 0.00 in /  0 mm
15:02 65.0 °F /  18.3 °C 55.8 °F /  13.2 °C 30.03 in /  1016.8 hPa ESE 1.2 mph /  1.9 km/h 1.2 mph /  1.9 km/h 72 % 0.00 in /  0 mm
15:07 64.8 °F /  18.2 °C 55.6 °F /  13.1 °C 30.03 in /  1016.8 hPa NW 1.2 mph /  1.9 km/h 1.2 mph /  1.9 km/h 72 % 0.00 in /  0 mm
15:12 64.6 °F /  18.1 °C 55.4 °F /  13 °C 30.03 in /  1016.8 hPa WNW 2.3 mph /  3.7 km/h 2.3 mph /  3.7 km/h 72 % 0.00 in /  0 mm
15:18 64.4 °F /  18 °C 55.2 °F /  12.9 °C 30.03 in /  1016.8 hPa Calm     72 % 0.00 in /  0 mm
15:23 64.1 °F /  17.8 °C 54.9 °F /  12.7 °C 30.03 in /  1016.8 hPa WSW 2.3 mph /  3.7 km/h 2.3 mph /  3.7 km/h 72 % 0.00 in /  0 mm
15:28 63.9 °F /  17.7 °C 55.1 °F /  12.8 °C 30.03 in /  1016.8 hPa West 2.3 mph /  3.7 km/h 2.3 mph /  3.7 km/h 73 % 0.00 in /  0 mm
15:33 63.7 °F /  17.6 °C 54.9 °F /  12.7 °C 30.03 in /  1016.8 hPa NW 1.2 mph /  1.9 km/h   73 % 0.00 in /  0 mm
15:38 63.5 °F /  17.5 °C 55.1 °F /  12.8 °C 30.02 in /  1016.5 hPa Calm     74 % 0.00 in /  0 mm
15:43 63.5 °F /  17.5 °C 55.1 °F /  12.8 °C 30.02 in /  1016.5 hPa Calm     74 % 0.00 in /  0 mm
15:48 63.5 °F /  17.5 °C 54.7 °F /  12.6 °C 30.02 in /  1016.5 hPa Calm     73 % 0.00 in /  0 mm
15:53 63.5 °F /  17.5 °C 55.1 °F /  12.8 °C 30.02 in /  1016.5 hPa SSE 1.2 mph /  1.9 km/h 1.2 mph /  1.9 km/h 74 % 0.00 in /  0 mm
15:58 63.4 °F /  17.4 °C 55.0 °F /  12.8 °C 30.02 in /  1016.5 hPa Calm     74 % 0.00 in /  0 mm
16:03 63.3 °F /  17.4 °C 55.2 °F /  12.9 °C 30.02 in /  1016.5 hPa SE 1.2 mph /  1.9 km/h   75 % 0.00 in /  0 mm
16:08 63.2 °F /  17.3 °C 55.1 °F /  12.8 °C 30.02 in /  1016.5 hPa Calm     75 % 0.00 in /  0 mm
16:13 63.0 °F /  17.2 °C 54.9 °F /  12.7 °C 30.02 in /  1016.5 hPa Calm     75 % 0.00 in /  0 mm
16:18 62.9 °F /  17.2 °C 55.2 °F /  12.9 °C 30.02 in /  1016.5 hPa Calm     76 % 0.00 in /  0 mm
16:23 62.7 °F /  17.1 °C 55.4 °F /  13 °C 30.02 in /  1016.5 hPa Calm     77 % 0.00 in /  0 mm
16:28 62.5 °F /  16.9 °C 55.2 °F /  12.9 °C 30.02 in /  1016.5 hPa Calm     77 % 0.00 in /  0 mm
16:33 62.3 °F /  16.8 °C 55.4 °F /  13 °C 30.02 in /  1016.5 hPa Calm     78 % 0.00 in /  0 mm
16:38 62.0 °F /  16.7 °C 55.1 °F /  12.8 °C 30.02 in /  1016.5 hPa Calm     78 % 0.00 in /  0 mm
16:43 61.6 °F /  16.4 °C 55.0 °F /  12.8 °C 30.02 in /  1016.5 hPa Calm     79 % 0.00 in /  0 mm
16:48 61.3 °F /  16.3 °C 55.1 °F /  12.8 °C 30.02 in /  1016.5 hPa Calm     80 % 0.00 in /  0 mm
16:53 60.9 °F /  16.1 °C 54.7 °F /  12.6 °C 30.02 in /  1016.5 hPa Calm     80 % 0.00 in /  0 mm
16:58 60.5 °F /  15.8 °C 54.6 °F /  12.6 °C 30.02 in /  1016.5 hPa WNW 1.2 mph /  1.9 km/h   81 % 0.00 in /  0 mm
17:03 60.1 °F /  15.6 °C 54.2 °F /  12.3 °C 30.02 in /  1016.5 hPa WNW 1.2 mph /  1.9 km/h 1.2 mph /  1.9 km/h 81 % 0.00 in /  0 mm
17:08 59.6 °F /  15.3 °C 54.1 °F /  12.3 °C 30.02 in /  1016.5 hPa WNW 1.2 mph /  1.9 km/h 1.2 mph /  1.9 km/h 82 % 0.00 in /  0 mm
17:13 59.1 °F /  15.1 °C 53.9 °F /  12.2 °C 30.02 in /  1016.5 hPa WNW 1.2 mph /  1.9 km/h 1.2 mph /  1.9 km/h 83 % 0.00 in /  0 mm
17:18 58.6 °F /  14.8 °C 53.8 °F /  12.1 °C 30.02 in /  1016.5 hPa WNW 1.2 mph /  1.9 km/h 1.2 mph /  1.9 km/h 84 % 0.00 in /  0 mm
17:23 58.3 °F /  14.6 °C 53.8 °F /  12.1 °C 30.02 in /  1016.5 hPa Calm     85 % 0.00 in /  0 mm
17:28 57.9 °F /  14.4 °C 53.4 °F /  11.9 °C 30.02 in /  1016.5 hPa WNW 1.2 mph /  1.9 km/h 1.2 mph /  1.9 km/h 85 % 0.00 in /  0 mm
17:33 57.6 °F /  14.2 °C 53.4 °F /  11.9 °C 30.02 in /  1016.5 hPa Calm     86 % 0.00 in /  0 mm
17:38 57.3 °F /  14.1 °C 53.1 °F /  11.7 °C 30.02 in /  1016.5 hPa WNW 1.2 mph /  1.9 km/h 1.2 mph /  1.9 km/h 86 % 0.00 in /  0 mm
17:43 57.0 °F /  13.9 °C 53.2 °F /  11.8 °C 30.01 in /  1016.1 hPa Calm     87 % 0.00 in /  0 mm
17:48 56.7 °F /  13.7 °C 52.9 °F /  11.6 °C 30.01 in /  1016.1 hPa Calm     87 % 0.00 in /  0 mm
17:53 56.3 °F /  13.5 °C 52.8 °F /  11.6 °C 30.01 in /  1016.1 hPa Calm     88 % 0.00 in /  0 mm
17:58 56.0 °F /  13.3 °C 52.5 °F /  11.4 °C 30.01 in /  1016.1 hPa Calm     88 % 0.00 in /  0 mm
18:03 55.7 °F /  13.2 °C 52.5 °F /  11.4 °C 30.01 in /  1016.1 hPa Calm     89 % 0.00 in /  0 mm
18:08 55.3 °F /  12.9 °C 52.1 °F /  11.2 °C 30.01 in /  1016.1 hPa Calm     89 % 0.00 in /  0 mm
18:13 55.0 °F /  12.8 °C 51.8 °F /  11 °C 30.01 in /  1016.1 hPa Calm     89 % 0.00 in /  0 mm
18:18 54.6 °F /  12.6 °C 51.7 °F /  10.9 °C 30.02 in /  1016.5 hPa NW 1.2 mph /  1.9 km/h 1.2 mph /  1.9 km/h 90 % 0.00 in /  0 mm
18:23 54.3 °F /  12.4 °C 51.7 °F /  10.9 °C 30.02 in /  1016.5 hPa NW 1.2 mph /  1.9 km/h 1.2 mph /  1.9 km/h 91 % 0.00 in /  0 mm
18:28 54.1 °F /  12.3 °C 51.5 °F /  10.8 °C 30.03 in /  1016.8 hPa NW 1.2 mph /  1.9 km/h 1.2 mph /  1.9 km/h 91 % 0.00 in /  0 mm
18:33 53.9 °F /  12.2 °C 51.6 °F /  10.9 °C 30.03 in /  1016.8 hPa NW 1.2 mph /  1.9 km/h   92 % 0.00 in /  0 mm
18:38 53.7 °F /  12.1 °C 51.4 °F /  10.8 °C 30.03 in /  1016.8 hPa Calm     92 % 0.00 in /  0 mm
18:43 53.6 °F /  12 °C 51.3 °F /  10.7 °C 30.03 in /  1016.8 hPa Calm   0.1 mph /  0.2 km/h 92 % 0.00 in /  0 mm
18:48 53.4 °F /  11.9 °C 51.1 °F /  10.6 °C 30.03 in /  1016.8 hPa Calm     92 % 0.00 in /  0 mm
18:53 53.3 °F /  11.8 °C 51.0 °F /  10.6 °C 30.03 in /  1016.8 hPa Calm     92 % 0.00 in /  0 mm
18:58 53.1 °F /  11.7 °C 50.8 °F /  10.4 °C 30.03 in /  1016.8 hPa Calm     92 % 0.00 in /  0 mm
19:03 52.9 °F /  11.6 °C 50.6 °F /  10.3 °C 30.04 in /  1017.2 hPa Calm     92 % 0.00 in /  0 mm
19:08 52.7 °F /  11.5 °C 50.4 °F /  10.2 °C 30.04 in /  1017.2 hPa Calm     92 % 0.00 in /  0 mm
19:13 52.5 °F /  11.4 °C 50.5 °F /  10.3 °C 30.04 in /  1017.2 hPa Calm     93 % 0.00 in /  0 mm
19:18 52.3 °F /  11.3 °C 50.3 °F /  10.2 °C 30.03 in /  1016.8 hPa Calm     93 % 0.00 in /  0 mm
19:23 52.2 °F /  11.2 °C 50.2 °F /  10.1 °C 30.03 in /  1016.8 hPa Calm     93 % 0.00 in /  0 mm
19:28 52.2 °F /  11.2 °C 50.5 °F /  10.3 °C 30.03 in /  1016.8 hPa Calm     94 % 0.00 in /  0 mm
19:33 52.1 °F /  11.2 °C 50.4 °F /  10.2 °C 30.03 in /  1016.8 hPa Calm     94 % 0.00 in /  0 mm
19:38 52.0 °F /  11.1 °C 50.3 °F /  10.2 °C 30.03 in /  1016.8 hPa Calm     94 % 0.00 in /  0 mm
19:43 52.0 °F /  11.1 °C 50.3 °F /  10.2 °C 30.02 in /  1016.5 hPa Calm     94 % 0.00 in /  0 mm
19:48 51.9 °F /  11.1 °C 49.9 °F /  9.9 °C 30.02 in /  1016.5 hPa Calm     93 % 0.00 in /  0 mm
19:53 51.5 °F /  10.8 °C 49.5 °F /  9.7 °C 30.03 in /  1016.8 hPa Calm     93 % 0.00 in /  0 mm
19:58 51.2 °F /  10.7 °C 49.2 °F /  9.6 °C 30.02 in /  1016.5 hPa Calm     93 % 0.00 in /  0 mm
20:03 51.0 °F /  10.6 °C 49.0 °F /  9.4 °C 30.02 in /  1016.5 hPa Calm     93 % 0.00 in /  0 mm
20:08 50.8 °F /  10.4 °C 48.8 °F /  9.3 °C 30.03 in /  1016.8 hPa Calm     93 % 0.00 in /  0 mm
20:13 50.5 °F /  10.3 °C 48.6 °F /  9.2 °C 30.03 in /  1016.8 hPa Calm     93 % 0.00 in /  0 mm
20:18 50.4 °F /  10.2 °C 48.5 °F /  9.2 °C 30.03 in /  1016.8 hPa Calm     93 % 0.00 in /  0 mm
20:23 50.3 °F /  10.2 °C 48.6 °F /  9.2 °C 30.03 in /  1016.8 hPa Calm     94 % 0.00 in /  0 mm
20:29 50.0 °F /  10 °C 48.3 °F /  9.1 °C 30.03 in /  1016.8 hPa Calm     94 % 0.00 in /  0 mm
20:34 49.8 °F /  9.9 °C 48.1 °F /  8.9 °C 30.03 in /  1016.8 hPa Calm     94 % 0.00 in /  0 mm
20:39 49.6 °F /  9.8 °C 47.9 °F /  8.8 °C 30.03 in /  1016.8 hPa Calm     94 % 0.00 in /  0 mm
20:44 49.5 °F /  9.7 °C 47.8 °F /  8.8 °C 30.03 in /  1016.8 hPa Calm     94 % 0.00 in /  0 mm
20:49 49.3 °F /  9.6 °C 47.6 °F /  8.7 °C 30.03 in /  1016.8 hPa Calm     94 % 0.00 in /  0 mm
20:54 49.3 °F /  9.6 °C 47.6 °F /  8.7 °C 30.03 in /  1016.8 hPa Calm     94 % 0.00 in /  0 mm
20:59 49.2 °F /  9.6 °C 47.5 °F /  8.6 °C 30.03 in /  1016.8 hPa Calm     94 % 0.00 in /  0 mm
21:04 49.0 °F /  9.4 °C 47.3 °F /  8.5 °C 30.03 in /  1016.8 hPa Calm     94 % 0.00 in /  0 mm
21:09 49.0 °F /  9.4 °C 47.3 °F /  8.5 °C 30.03 in /  1016.8 hPa Calm     94 % 0.00 in /  0 mm
21:14 48.8 °F /  9.3 °C 47.2 °F /  8.4 °C 30.03 in /  1016.8 hPa Calm     94 % 0.00 in /  0 mm
21:19 48.7 °F /  9.3 °C 47.1 °F /  8.4 °C 30.03 in /  1016.8 hPa Calm     94 % 0.00 in /  0 mm
21:24 48.6 °F /  9.2 °C 47.2 °F /  8.4 °C 30.03 in /  1016.8 hPa Calm     95 % 0.00 in /  0 mm
21:29 48.6 °F /  9.2 °C 47.2 °F /  8.4 °C 30.03 in /  1016.8 hPa Calm     95 % 0.00 in /  0 mm
21:34 48.5 °F /  9.2 °C 47.1 °F /  8.4 °C 30.03 in /  1016.8 hPa Calm     95 % 0.00 in /  0 mm
21:39 48.4 °F /  9.1 °C 47.0 °F /  8.3 °C 30.03 in /  1016.8 hPa Calm     95 % 0.00 in /  0 mm
21:44 48.4 °F /  9.1 °C 47.0 °F /  8.3 °C 30.03 in /  1016.8 hPa Calm     95 % 0.00 in /  0 mm
21:49 48.5 °F /  9.2 °C 47.1 °F /  8.4 °C 30.03 in /  1016.8 hPa Calm     95 % 0.00 in /  0 mm
21:54 48.7 °F /  9.3 °C 47.3 °F /  8.5 °C 30.03 in /  1016.8 hPa Calm     95 % 0.00 in /  0 mm
21:59 48.6 °F /  9.2 °C 47.2 °F /  8.4 °C 30.03 in /  1016.8 hPa Calm     95 % 0.00 in /  0 mm
22:04 48.4 °F /  9.1 °C 47.0 °F /  8.3 °C 30.03 in /  1016.8 hPa Calm     95 % 0.00 in /  0 mm
22:09 48.2 °F /  9 °C 46.8 °F /  8.2 °C 30.03 in /  1016.8 hPa Calm     95 % 0.00 in /  0 mm
22:14 48.1 °F /  8.9 °C 46.7 °F /  8.2 °C 30.04 in /  1017.2 hPa Calm     95 % 0.00 in /  0 mm
22:19 48.3 °F /  9.1 °C 47.2 °F /  8.4 °C 30.03 in /  1016.8 hPa Calm     96 % 0.00 in /  0 mm
22:24 48.6 °F /  9.2 °C 47.5 °F /  8.6 °C 30.03 in /  1016.8 hPa Calm     96 % 0.00 in /  0 mm
22:29 48.4 °F /  9.1 °C 47.3 °F /  8.5 °C 30.03 in /  1016.8 hPa Calm     96 % 0.00 in /  0 mm
22:34 48.3 °F /  9.1 °C 46.9 °F /  8.3 °C 30.03 in /  1016.8 hPa Calm     95 % 0.00 in /  0 mm
22:39 48.4 °F /  9.1 °C 47.3 °F /  8.5 °C 30.03 in /  1016.8 hPa Calm     96 % 0.00 in /  0 mm
22:44 48.7 °F /  9.3 °C 47.6 °F /  8.7 °C 30.03 in /  1016.8 hPa Calm     96 % 0.00 in /  0 mm
22:49 48.6 °F /  9.2 °C 47.5 °F /  8.6 °C 30.03 in /  1016.8 hPa Calm     96 % 0.00 in /  0 mm
22:54 48.2 °F /  9 °C 47.1 °F /  8.4 °C 30.03 in /  1016.8 hPa Calm     96 % 0.00 in /  0 mm
22:59 48.1 °F /  8.9 °C 46.7 °F /  8.2 °C 30.03 in /  1016.8 hPa Calm     95 % 0.00 in /  0 mm
23:04 48.1 °F /  8.9 °C 47.0 °F /  8.3 °C 30.03 in /  1016.8 hPa Calm     96 % 0.00 in /  0 mm
23:09 48.1 °F /  8.9 °C 47.0 °F /  8.3 °C 30.03 in /  1016.8 hPa Calm     96 % 0.00 in /  0 mm
23:14 48.0 °F /  8.9 °C 46.9 °F /  8.3 °C 30.03 in /  1016.8 hPa Calm     96 % 0.00 in /  0 mm
23:19 47.6 °F /  8.7 °C 46.2 °F /  7.9 °C 30.03 in /  1016.8 hPa Calm     95 % 0.00 in /  0 mm
23:24 47.3 °F /  8.5 °C 45.9 °F /  7.7 °C 30.04 in /  1017.2 hPa Calm     95 % 0.00 in /  0 mm
23:29 47.3 °F /  8.5 °C 45.9 °F /  7.7 °C 30.03 in /  1016.8 hPa Calm     95 % 0.00 in /  0 mm
23:34 47.3 °F /  8.5 °C 46.2 °F /  7.9 °C 30.04 in /  1017.2 hPa Calm     96 % 0.00 in /  0 mm
23:39 47.4 °F /  8.6 °C 46.3 °F /  7.9 °C 30.04 in /  1017.2 hPa Calm     96 % 0.00 in /  0 mm
23:44 47.6 °F /  8.7 °C 46.5 °F /  8.1 °C 30.04 in /  1017.2 hPa Calm     96 % 0.00 in /  0 mm
23:49 47.6 °F /  8.7 °C 46.5 °F /  8.1 °C 30.04 in /  1017.2 hPa Calm     96 % 0.00 in /  0 mm
23:54 47.4 °F /  8.6 °C 46.3 °F /  7.9 °C 30.04 in /  1017.2 hPa Calm     96 % 0.00 in /  0 mm
23:59 47.5 °F /  8.6 °C 46.4 °F /  8 °C 30.04 in /  1017.2 hPa West 1.2 mph /  1.9 km/h   96 % 0.00 in /  0 mm
Park Place, Exeter, Tulare County, California, USA
Compliments of Weather Underground - 2.75 mb